createdAt,value
2018-07-27T00:00:42.052Z,13
2018-07-27T00:10:41.300Z,13.1
2018-07-27T00:20:40.535Z,13
2018-07-27T00:30:39.778Z,12.9
2018-07-27T00:40:39.021Z,12.5
2018-07-27T00:50:38.265Z,12.4
2018-07-27T01:00:37.506Z,12.5
2018-07-27T01:10:36.756Z,12.7
2018-07-27T01:20:35.998Z,12.9
2018-07-27T01:30:35.233Z,12.7
2018-07-27T01:40:34.475Z,13.1
2018-07-27T01:50:33.714Z,13
2018-07-27T02:00:32.958Z,13.2
2018-07-27T02:10:32.205Z,12.9
2018-07-27T02:20:31.444Z,12.7
2018-07-27T02:30:30.681Z,13.2
2018-07-27T02:40:29.942Z,12.7
2018-07-27T02:50:29.170Z,12.8
2018-07-27T03:00:28.406Z,13.2
2018-07-27T03:10:27.648Z,12.6
2018-07-27T03:20:26.891Z,12.7
2018-07-27T03:30:26.135Z,13
2018-07-27T03:40:25.378Z,12.4
2018-07-27T03:50:24.626Z,12.4
2018-07-27T04:00:23.864Z,12.9
2018-07-27T04:10:23.105Z,12.5
2018-07-27T04:20:22.347Z,13
2018-07-27T04:30:21.639Z,12.4
2018-07-27T04:40:20.835Z,12.7
2018-07-27T04:50:20.077Z,12.7
2018-07-27T05:00:19.317Z,13
2018-07-27T05:10:18.561Z,13.1
2018-07-27T05:20:17.807Z,12.7
2018-07-27T05:30:17.042Z,12.7
2018-07-27T05:40:16.284Z,12.7
2018-07-27T05:50:15.526Z,12.6
2018-07-27T06:00:14.767Z,13.1
2018-07-27T06:10:14.012Z,13.2
2018-07-27T06:20:13.255Z,12.9
2018-07-27T06:30:12.496Z,13.1
2018-07-27T06:40:11.739Z,12.9
2018-07-27T06:50:10.982Z,13.3
2018-07-27T07:00:10.223Z,13.1
2018-07-27T07:10:09.465Z,13.6
2018-07-27T07:20:08.706Z,13.9
2018-07-27T07:30:07.950Z,13.1
2018-07-27T07:40:07.190Z,13.7
2018-07-27T07:50:06.434Z,13.9
2018-07-27T08:00:05.674Z,14.3
2018-07-27T08:10:04.916Z,14
2018-07-27T08:20:04.159Z,14.3
2018-07-27T08:30:03.400Z,14
2018-07-27T08:40:02.646Z,14.2
2018-07-27T08:50:01.896Z,14.2
2018-07-27T09:00:01.128Z,14
2018-07-27T09:10:00.422Z,14.6
2018-07-27T09:19:59.615Z,14.1
2018-07-27T09:29:58.856Z,14.6
2018-07-27T09:39:58.107Z,14
2018-07-27T09:49:57.345Z,14.4
2018-07-27T09:59:56.633Z,14.1
2018-07-27T10:09:55.834Z,14.3
2018-07-27T10:19:55.073Z,14.3
2018-07-27T10:29:54.312Z,14.3
2018-07-27T10:39:53.609Z,14.3
2018-07-27T10:49:52.808Z,13.9
2018-07-27T10:59:52.045Z,13.9
2018-07-27T11:09:51.314Z,14.1
2018-07-27T11:19:50.530Z,14.6
2018-07-27T11:29:49.775Z,14.3
2018-07-27T11:39:49.017Z,14
2018-07-27T11:49:48.260Z,14.3
2018-07-27T11:59:47.503Z,14.3
2018-07-27T12:09:46.751Z,13.6
2018-07-27T12:19:45.987Z,14.4
2018-07-27T12:29:45.233Z,14
2018-07-27T12:39:44.471Z,14
2018-07-27T12:49:43.717Z,13.9
2018-07-27T12:59:42.952Z,14.3
2018-07-27T13:09:42.197Z,14
2018-07-27T13:19:41.438Z,14.5
2018-07-27T13:29:40.684Z,13.3
2018-07-27T13:39:40.001Z,13.2
2018-07-27T13:49:39.172Z,12.9
2018-07-27T13:59:38.462Z,12.5
2018-07-27T14:09:37.656Z,13
2018-07-27T14:19:36.904Z,13.2
2018-07-27T14:29:36.191Z,13.1
2018-07-27T14:39:35.382Z,13
2018-07-27T14:49:34.657Z,12.6
2018-07-27T14:59:33.865Z,13.1
2018-07-27T15:09:33.111Z,12.7
2018-07-27T15:19:32.352Z,13.2
2018-07-27T15:29:31.595Z,13.2
2018-07-27T15:39:30.838Z,12.5
2018-07-27T15:49:30.082Z,12.7
2018-07-27T15:59:29.326Z,13
2018-07-27T16:09:28.567Z,12.9
2018-07-27T16:19:27.810Z,13.1
2018-07-27T16:29:27.058Z,13
2018-07-27T16:39:26.298Z,13.1
2018-07-27T16:49:25.544Z,12.9
2018-07-27T16:59:24.836Z,13.1
2018-07-27T17:09:24.042Z,12.9
2018-07-27T17:19:23.274Z,12.6
2018-07-27T17:29:22.521Z,12.4
2018-07-27T17:39:21.766Z,13.2
2018-07-27T17:49:21.018Z,12.8
2018-07-27T17:59:20.260Z,13.2
2018-07-27T18:09:19.501Z,12.9
2018-07-27T18:19:18.744Z,12.4
2018-07-27T18:29:17.992Z,12.9
2018-07-27T18:39:17.236Z,13.2
2018-07-27T18:49:16.481Z,12.7
2018-07-27T18:59:15.725Z,12.9
2018-07-27T19:09:14.972Z,13.1
2018-07-27T19:19:14.270Z,12.8
2018-07-27T19:29:13.468Z,12.8
2018-07-27T19:39:12.712Z,13
2018-07-27T19:49:12.081Z,12.7
2018-07-27T19:59:11.204Z,12.7
2018-07-27T20:09:10.453Z,12.7
2018-07-27T20:19:09.701Z,12.5
2018-07-27T20:29:08.953Z,12.6
2018-07-27T20:39:08.192Z,13.1
2018-07-27T20:49:07.438Z,13
2018-07-27T20:59:06.691Z,12.5
2018-07-27T21:09:05.930Z,12.9
2018-07-27T21:19:05.172Z,12.5
2018-07-27T21:29:04.417Z,13.1
2018-07-27T21:39:03.663Z,13.1
2018-07-27T21:49:02.905Z,12.5
2018-07-27T21:59:02.151Z,12.8
2018-07-27T22:09:01.398Z,13.1
2018-07-27T22:19:00.635Z,12.6
2018-07-27T22:28:59.878Z,12.9
2018-07-27T22:38:59.128Z,12.9
2018-07-27T22:48:58.373Z,13
2018-07-27T22:58:57.612Z,13
2018-07-27T23:08:56.875Z,13.1
2018-07-27T23:18:56.100Z,13
2018-07-27T23:28:55.342Z,12.8
2018-07-27T23:38:54.587Z,13
2018-07-27T23:48:53.830Z,12.6
2018-07-27T23:58:53.125Z,13
